Time;durP1;ratioP1;P1;durP2;ratioP2;P2;SDS_P1;SDS_P2;PMS_P1;PMS_P2;Temp;Humidity;BMP_temperature;BMP_pressure;BME280_temperature;BME280_humidity;BME280_pressure;Samples;Min_cycle;Max_cycle;Signal;HPM_P1;HPM_P2
2023/08/24 00:01:21;;;;;;;10.97;7.30;;;17.10;99.90;;;;;;6189604;23;20392;-91
2023/08/24 00:03:53;;;;;;;13.80;6.85;;;17.00;99.90;;;;;;6144646;23;20463;-89
2023/08/24 00:06:44;;;;;;;10.80;6.97;;;17.00;99.90;;;;;;6150464;23;20009;-90
2023/08/24 00:09:21;;;;;;;10.38;7.07;;;17.00;99.90;;;;;;6148104;23;20089;-91
2023/08/24 00:12:10;;;;;;;11.65;7.68;;;17.00;99.90;;;;;;6149088;23;20428;-90
2023/08/24 00:15:02;;;;;;;9.90;6.95;;;17.00;99.90;;;;;;6123275;23;20398;-89
2023/08/24 00:17:41;;;;;;;13.02;6.95;;;17.00;99.90;;;;;;6144414;23;20040;-90
2023/08/24 00:20:27;;;;;;;11.75;8.07;;;17.00;99.90;;;;;;6143475;23;20008;-90
2023/08/24 00:23:12;;;;;;;13.13;8.60;;;17.00;99.90;;;;;;6194249;23;20008;-90
2023/08/24 00:25:46;;;;;;;10.68;7.85;;;17.00;99.90;;;;;;6145005;23;20330;-90
2023/08/24 00:28:41;;;;;;;13.18;8.30;;;17.10;99.90;;;;;;6190632;23;20087;-90
2023/08/24 00:31:17;;;;;;;11.15;8.32;;;17.00;99.90;;;;;;6174194;23;20004;-91
2023/08/24 00:34:13;;;;;;;;;;;;;;;;;;;;;
2023/08/24 00:36:46;;;;;;;15.15;8.75;;;17.10;99.90;;;;;;6196112;23;20374;-90
2023/08/24 00:39:46;;;;;;;15.73;8.73;;;17.10;99.90;;;;;;6156343;23;20087;-92
2023/08/24 00:42:42;;;;;;;14.65;8.60;;;17.10;99.90;;;;;;6133067;23;20012;-91
2023/08/24 00:45:38;;;;;;;12.73;8.70;;;17.10;99.90;;;;;;6170361;23;20004;-91
2023/08/24 00:48:17;;;;;;;15.88;8.57;;;17.10;99.90;;;;;;6167616;23;20017;-90
2023/08/24 00:51:18;;;;;;;11.43;8.52;;;17.10;99.90;;;;;;6142879;23;20012;-91
2023/08/24 00:53:52;;;;;;;11.50;8.07;;;17.10;99.90;;;;;;6167985;23;20008;-91
2023/08/24 00:56:43;;;;;;;17.65;8.88;;;17.10;99.90;;;;;;6191667;23;20012;-90
2023/08/24 00:59:15;;;;;;;12.90;7.55;;;17.10;99.90;;;;;;6143060;23;20039;-91
2023/08/24 01:01:54;;;;;;;15.60;8.10;;;17.10;99.90;;;;;;6143123;23;20009;-91
2023/08/24 01:04:22;;;;;;;14.20;8.15;;;17.10;99.90;;;;;;6168815;23;20482;-91
2023/08/24 01:07:06;;;;;;;9.77;7.20;;;17.10;99.90;;;;;;6146590;23;20407;-92
2023/08/24 01:09:47;;;;;;;11.50;7.85;;;17.10;99.90;;;;;;6170234;23;20017;-90
2023/08/24 01:12:38;;;;;;;11.02;8.30;;;17.10;99.90;;;;;;6169011;23;20000;-90
2023/08/24 01:15:18;;;;;;;14.18;8.00;;;17.10;99.90;;;;;;6137371;23;20009;-91
2023/08/24 01:18:10;;;;;;;11.73;8.15;;;17.10;99.90;;;;;;6176602;23;20013;-91
2023/08/24 01:21:07;;;;;;;12.05;8.15;;;17.10;99.90;;;;;;6152019;23;20396;-90
2023/08/24 01:24:22;;;;;;;;;;;;;;;;;;;;;
2023/08/24 01:27:06;;;;;;;;;;;;;;;;;;;;;
2023/08/24 01:29:42;;;;;;;13.00;8.57;;;17.10;99.90;;;;;;6165615;23;20020;-90
2023/08/24 01:32:39;;;;;;;14.05;7.70;;;17.10;99.90;;;;;;6142169;23;20005;-90
2023/08/24 01:35:18;;;;;;;14.52;7.80;;;17.10;99.90;;;;;;6170829;23;20025;-91
2023/08/24 01:37:57;;;;;;;15.63;8.05;;;17.10;99.90;;;;;;6145578;23;20070;-90
2023/08/24 01:40:38;;;;;;;12.88;8.20;;;17.10;99.90;;;;;;6168810;23;20009;-90
2023/08/24 01:43:50;;;;;;;12.27;8.00;;;17.20;99.90;;;;;;6172352;23;20008;-91
2023/08/24 01:46:25;;;;;;;10.65;7.90;;;17.10;99.90;;;;;;6169106;23;20016;-90
2023/08/24 01:49:06;;;;;;;13.02;7.72;;;17.20;99.90;;;;;;6147122;23;20266;-91
2023/08/24 01:51:59;;;;;;;15.70;8.13;;;17.20;99.90;;;;;;6168746;23;20012;-91
2023/08/24 01:54:49;;;;;;;14.00;8.27;;;17.10;99.90;;;;;;6152320;23;20001;-90
2023/08/24 01:57:32;;;;;;;14.05;8.48;;;17.10;99.90;;;;;;6144749;23;20044;-91
2023/08/24 02:00:21;;;;;;;12.90;7.30;;;17.20;99.90;;;;;;6176630;23;20274;-90
2023/08/24 02:03:01;;;;;;;12.50;8.18;;;17.10;99.90;;;;;;6123064;23;20008;-91
2023/08/24 02:05:55;;;;;;;12.52;7.40;;;17.10;99.90;;;;;;6155844;23;20035;-90
2023/08/24 02:08:32;;;;;;;13.50;8.20;;;17.20;99.90;;;;;;6144512;23;20047;-90
2023/08/24 02:11:12;;;;;;;14.43;8.30;;;17.10;99.90;;;;;;6146865;23;20100;-91
2023/08/24 02:13:55;;;;;;;12.88;8.07;;;17.20;99.90;;;;;;6171637;23;20237;-90
2023/08/24 02:16:31;;;;;;;14.30;8.18;;;17.20;99.90;;;;;;6144013;23;20013;-91
2023/08/24 02:19:13;;;;;;;12.68;8.00;;;17.20;99.90;;;;;;6146387;23;20001;-90
2023/08/24 02:22:14;;;;;;;13.27;8.43;;;17.20;99.90;;;;;;6172239;23;20032;-90
2023/08/24 02:25:09;;;;;;;14.45;8.35;;;17.20;99.90;;;;;;6151704;23;20079;-89
2023/08/24 02:27:56;;;;;;;;;;;;;;;;;;;;;
2023/08/24 02:31:00;;;;;;;15.45;8.23;;;17.20;99.90;;;;;;6168637;23;20091;-90
2023/08/24 02:33:39;;;;;;;13.50;8.32;;;17.20;99.90;;;;;;6167904;23;20009;-89
2023/08/24 02:36:31;;;;;;;13.30;7.93;;;17.10;99.90;;;;;;6136673;23;20067;-90
2023/08/24 02:39:15;;;;;;;17.50;8.88;;;17.10;99.90;;;;;;6145730;23;20020;-90
2023/08/24 02:42:02;;;;;;;12.05;8.70;;;17.10;99.90;;;;;;6144823;23;20012;-91
2023/08/24 02:44:39;;;;;;;;;;;;;;;;;;;;;
2023/08/24 02:47:19;;;;;;;13.05;8.73;;;17.10;99.90;;;;;;6168672;23;20012;-91
2023/08/24 02:50:00;;;;;;;12.60;8.30;;;17.10;99.90;;;;;;6121580;23;20104;-90
2023/08/24 02:53:14;;;;;;;;;;;;;;;;;;;;;
2023/08/24 02:56:18;;;;;;;15.23;9.65;;;17.10;99.90;;;;;;6189320;23;20055;-91
2023/08/24 02:59:01;;;;;;;15.52;9.63;;;17.00;99.90;;;;;;6169710;23;20047;-91
2023/08/24 03:01:42;;;;;;;11.50;8.77;;;17.00;99.90;;;;;;6144925;23;20005;-90
2023/08/24 03:04:28;;;;;;;14.23;9.35;;;17.00;99.90;;;;;;6171890;23;20009;-91
2023/08/24 03:07:10;;;;;;;;;;;;;;;;;;;;;
2023/08/24 03:09:46;;;;;;;13.02;9.20;;;16.90;99.90;;;;;;6193076;23;20362;-91
2023/08/24 03:12:47;;;;;;;15.82;10.25;;;16.90;99.90;;;;;;6156848;23;20004;-90
2023/08/24 03:15:39;;;;;;;15.90;9.07;;;17.00;99.90;;;;;;6196994;23;20109;-91
2023/08/24 03:18:07;;;;;;;16.50;9.23;;;16.90;99.90;;;;;;6143482;23;20062;-89
2023/08/24 03:20:43;;;;;;;15.85;9.68;;;16.90;99.90;;;;;;6143422;23;20016;-90
2023/08/24 03:23:35;;;;;;;;;;;;;;;;;;;;;
2023/08/24 03:26:30;;;;;;;;;;;;;;;;;;;;;
2023/08/24 03:29:14;;;;;;;;;;;;;;;;;;;;;
2023/08/24 03:31:53;;;;;;;12.52;8.93;;;16.90;99.90;;;;;;6167585;23;20008;-90
2023/08/24 03:34:27;;;;;;;13.02;8.48;;;16.90;99.90;;;;;;6144255;23;20008;-90
2023/08/24 03:37:07;;;;;;;15.30;9.45;;;16.90;99.90;;;;;;6169703;23;20047;-90
2023/08/24 03:39:55;;;;;;;16.30;9.35;;;16.90;99.90;;;;;;6196510;23;20013;-90
2023/08/24 03:42:24;;;;;;;13.43;8.77;;;16.90;99.90;;;;;;6143055;23;20285;-90
2023/08/24 03:44:58;;;;;;;14.52;9.00;;;16.90;99.90;;;;;;6143987;23;20067;-91
2023/08/24 03:47:34;;;;;;;13.60;8.25;;;16.90;99.90;;;;;;6143630;23;20013;-90
2023/08/24 03:50:11;;;;;;;13.60;8.38;;;16.90;99.90;;;;;;6143787;23;20381;-90
2023/08/24 03:52:42;;;;;;;13.75;9.40;;;17.00;99.90;;;;;;6097352;23;20063;-90
2023/08/24 03:55:11;;;;;;;15.35;9.85;;;17.00;99.90;;;;;;6143579;23;20016;-89
2023/08/24 03:57:45;;;;;;;14.13;8.82;;;17.00;99.90;;;;;;6145858;23;20011;-90
2023/08/24 04:00:14;;;;;;;13.65;8.95;;;17.00;99.90;;;;;;6143185;23;20087;-90
2023/08/24 04:02:47;;;;;;;15.52;8.88;;;17.00;99.90;;;;;;6167780;23;20055;-90
2023/08/24 04:05:58;;;;;;;;;;;;;;;;;;;;;
2023/08/24 04:08:55;;;;;;;;;;;;;;;;;;;;;
2023/08/24 04:11:34;;;;;;;14.77;8.70;;;17.00;99.90;;;;;;6167513;23;20008;-90
2023/08/24 04:14:13;;;;;;;;;;;;;;;;;;;;;
2023/08/24 04:16:53;;;;;;;15.75;8.98;;;17.00;99.90;;;;;;6191946;23;20036;-90
2023/08/24 04:19:45;;;;;;;14.00;8.45;;;17.00;99.90;;;;;;6195135;23;20027;-90
2023/08/24 04:22:26;;;;;;;12.40;8.15;;;17.00;99.90;;;;;;6144757;23;20095;-90
2023/08/24 04:26:15;;;;;;;;;;;;;;;;;;;;;
2023/08/24 04:29:28;;;;;;;;;;;;;;;;;;;;;
2023/08/24 04:32:09;;;;;;;13.02;8.40;;;16.80;99.90;;;;;;6003735;23;20011;-89
2023/08/24 04:34:49;;;;;;;15.90;8.70;;;16.80;99.90;;;;;;6141178;23;20615;-90
2023/08/24 04:37:27;;;;;;;14.98;8.73;;;16.80;99.90;;;;;;6145585;23;20011;-90
2023/08/24 04:40:23;;;;;;;16.23;9.10;;;16.80;99.90;;;;;;6133572;23;20013;-91
2023/08/24 04:43:14;;;;;;;14.68;8.60;;;16.70;99.90;;;;;;6150633;23;20036;-91
2023/08/24 04:46:32;;;;;;;20.08;9.50;;;16.70;99.90;;;;;;6173387;23;20005;-90
2023/08/24 04:49:14;;;;;;;12.52;8.60;;;16.70;99.90;;;;;;6167728;23;20143;-90
2023/08/24 04:54:50;;;;;;;14.60;9.20;;;16.60;99.90;;;;;;6143649;23;20013;-90
2023/08/24 04:57:56;;;;;;;14.63;9.23;;;16.70;99.90;;;;;;6149291;23;20143;-90
2023/08/24 05:00:33;;;;;;;;;;;;;;;;;;;;;
2023/08/24 05:03:44;;;;;;;22.40;10.68;;;16.60;99.90;;;;;;6167621;23;20047;-90
2023/08/24 05:06:50;;;;;;;14.95;9.38;;;16.60;99.90;;;;;;6157955;23;20019;-90
2023/08/24 05:09:35;;;;;;;11.27;8.80;;;16.60;99.90;;;;;;6145949;23;20039;-92
2023/08/24 05:12:11;;;;;;;17.17;9.38;;;16.60;99.90;;;;;;6144033;23;20390;-91
2023/08/24 05:14:57;;;;;;;18.02;10.38;;;16.60;99.90;;;;;;6142182;23;20013;-90
2023/08/24 05:17:38;;;;;;;13.65;9.40;;;16.60;99.90;;;;;;6145664;23;20036;-90
2023/08/24 05:20:23;;;;;;;18.35;9.18;;;16.60;99.90;;;;;;6147258;23;20018;-91
2023/08/24 05:22:54;;;;;;;16.20;9.05;;;16.60;99.90;;;;;;6142396;23;20095;-90
2023/08/24 05:25:36;;;;;;;15.68;9.05;;;16.60;99.90;;;;;;6145375;23;20040;-90
2023/08/24 05:28:22;;;;;;;16.10;9.43;;;16.60;99.90;;;;;;6146083;23;20020;-90
2023/08/24 05:30:54;;;;;;;14.23;7.95;;;16.60;99.90;;;;;;6142843;23;20008;-90
2023/08/24 05:33:34;;;;;;;11.95;7.80;;;16.60;99.90;;;;;;6143039;23;20009;-90
2023/08/24 05:36:10;;;;;;;13.55;7.93;;;16.50;99.90;;;;;;6169011;23;20599;-90
2023/08/24 05:39:08;;;;;;;10.88;6.90;;;16.60;99.90;;;;;;6149751;23;20005;-89
2023/08/24 05:42:03;;;;;;;16.23;7.13;;;16.60;99.90;;;;;;6146180;23;20012;-90
2023/08/24 05:44:33;;;;;;;11.20;6.70;;;16.60;99.90;;;;;;6143067;23;20322;-90
2023/08/24 05:47:13;;;;;;;;;;;;;;;;;;;;;
2023/08/24 05:50:00;;;;;;;14.35;6.13;;;16.70;99.90;;;;;;6217910;23;20096;-91
2023/08/24 05:52:49;;;;;;;;;;;;;;;;;;;;;
2023/08/24 05:56:17;;;;;;;;;;;;;;;;;;;;;
2023/08/24 05:58:52;;;;;;;11.68;6.35;;;16.70;99.90;;;;;;6147047;23;20021;-91
2023/08/24 06:01:46;;;;;;;14.80;5.82;;;16.70;99.90;;;;;;6147573;23;20381;-90
2023/08/24 06:05:08;;;;;;;10.57;6.63;;;16.80;99.90;;;;;;6151131;23;20021;-91
2023/08/24 06:08:23;;;;;;;15.77;6.90;;;16.80;99.90;;;;;;6156427;23;20121;-91
2023/08/24 06:11:41;;;;;;;;;;;;;;;;;;;;;
2023/08/24 06:15:19;;;;;;;15.85;6.28;;;16.80;99.90;;;;;;6186673;23;20025;-92
2023/08/24 06:17:58;;;;;;;11.60;5.80;;;16.90;99.90;;;;;;6167647;23;20009;-91
2023/08/24 06:24:26;;;;;;;14.90;6.22;;;17.00;99.90;;;;;;6134729;23;20385;-90
2023/08/24 06:27:43;;;;;;;9.70;6.20;;;17.00;99.90;;;;;;6170710;23;20270;-91
2023/08/24 06:30:59;;;;;;;;;;;;;;;;;;;;;
2023/08/24 06:34:04;;;;;;;15.30;6.35;;;17.00;99.90;;;;;;6151807;23;20017;-89
2023/08/24 06:36:55;;;;;;;11.43;6.10;;;17.10;99.90;;;;;;6126849;23;20013;-89
2023/08/24 06:39:36;;;;;;;11.63;5.97;;;17.10;99.90;;;;;;6146750;23;20027;-90
2023/08/24 06:42:19;;;;;;;12.07;5.63;;;17.20;99.90;;;;;;6123767;23;20449;-88
2023/08/24 06:45:14;;;;;;;;;;;;;;;;;;;;;
2023/08/24 06:48:09;;;;;;;;;;;;;;;;;;;;;
2023/08/24 06:50:36;;;;;;;9.43;6.10;;;17.30;99.90;;;;;;6167296;23;20062;-89
2023/08/24 06:53:26;;;;;;;10.13;5.63;;;17.30;99.90;;;;;;6173722;23;20285;-89
2023/08/24 06:56:14;;;;;;;11.95;5.30;;;17.30;99.90;;;;;;6142490;23;20001;-88
2023/08/24 06:58:54;;;;;;;;;;;;;;;;;;;;;
2023/08/24 07:01:57;;;;;;;10.10;5.20;;;17.50;99.90;;;;;;6177999;23;20075;-90
2023/08/24 07:04:29;;;;;;;8.00;5.32;;;17.60;99.90;;;;;;6169203;23;20015;-90
2023/08/24 07:07:10;;;;;;;11.68;5.45;;;17.60;99.90;;;;;;6172326;23;20039;-87
2023/08/24 07:09:54;;;;;;;11.05;5.70;;;17.70;99.90;;;;;;6148210;23;20004;-87
2023/08/24 07:12:23;;;;;;;14.32;5.57;;;17.80;99.90;;;;;;6121239;23;20031;-88
2023/08/24 07:14:59;;;;;;;12.65;5.85;;;17.90;99.90;;;;;;6143452;23;20378;-88
2023/08/24 07:17:34;;;;;;;9.68;4.88;;;17.90;99.90;;;;;;6143102;23;20008;-86
2023/08/24 07:20:14;;;;;;;10.77;4.75;;;18.00;99.90;;;;;;6167127;23;20378;-89
2023/08/24 07:22:45;;;;;;;9.25;4.70;;;18.10;99.90;;;;;;6143401;23;20125;-89
2023/08/24 07:25:20;;;;;;;9.32;4.97;;;18.30;99.90;;;;;;6193940;23;20016;-87
2023/08/24 07:27:58;;;;;;;8.88;4.28;;;18.30;99.90;;;;;;6168583;23;20300;-88
2023/08/24 07:30:50;;;;;;;;;;;;;;;;;;;;;
2023/08/24 07:34:05;;;;;;;8.10;3.58;;;18.40;99.90;;;;;;6167271;23;20039;-89
2023/08/24 07:36:47;;;;;;;7.55;3.90;;;18.50;99.90;;;;;;6148347;23;20017;-88
2023/08/24 07:39:29;;;;;;;;;;;;;;;;;;;;;
2023/08/24 07:42:55;;;;;;;;;;;;;;;;;;;;;
2023/08/24 07:45:46;;;;;;;9.02;3.47;;;19.00;99.90;;;;;;6195066;23;20004;-89
2023/08/24 07:48:17;;;;;;;8.07;3.10;;;19.20;99.90;;;;;;6167091;23;20094;-89
2023/08/24 07:50:57;;;;;;;7.63;3.28;;;19.30;99.90;;;;;;6167065;23;20296;-89
2023/08/24 07:53:35;;;;;;;10.98;3.28;;;19.30;99.90;;;;;;6168205;23;20012;-89
2023/08/24 07:56:24;;;;;;;8.10;3.38;;;19.40;99.90;;;;;;6174360;23;20017;-89
2023/08/24 07:59:10;;;;;;;7.28;3.00;;;19.40;99.90;;;;;;6149775;23;20005;-88
2023/08/24 08:01:36;;;;;;;8.23;3.15;;;19.50;99.90;;;;;;6142564;23;20012;-89
2023/08/24 08:04:10;;;;;;;10.40;3.35;;;19.50;99.90;;;;;;6143899;23;20009;-89
2023/08/24 08:06:38;;;;;;;7.30;3.15;;;19.70;99.90;;;;;;6190927;23;20092;-89
2023/08/24 08:09:23;;;;;;;9.07;3.60;;;19.90;99.90;;;;;;6143351;23;20096;-88
2023/08/24 08:12:03;;;;;;;9.55;3.75;;;20.00;99.90;;;;;;6153483;23;20059;-88
2023/08/24 08:14:54;;;;;;;9.75;3.60;;;20.10;99.90;;;;;;6172825;23;20005;-90
2023/08/24 08:17:48;;;;;;;8.50;3.97;;;20.20;99.90;;;;;;6173886;23;20024;-88
2023/08/24 08:20:33;;;;;;;18.88;4.20;;;20.20;99.90;;;;;;6146610;23;20321;-89
2023/08/24 08:23:09;;;;;;;8.60;4.15;;;20.30;99.90;;;;;;6147188;23;20009;-88
2023/08/24 08:25:42;;;;;;;8.63;4.20;;;20.30;99.90;;;;;;6148028;23;20008;-89
2023/08/24 08:28:11;;;;;;;8.45;4.47;;;20.40;99.90;;;;;;6169788;23;20013;-88
2023/08/24 08:30:55;;;;;;;6.90;3.90;;;20.50;99.90;;;;;;6150990;23;20028;-89
2023/08/24 08:33:58;;;;;;;;;;;;;;;;;;;;;
2023/08/24 08:36:29;;;;;;;11.35;5.70;;;20.70;99.90;;;;;;6170488;23;20282;-88
2023/08/24 08:39:17;;;;;;;12.35;6.10;;;20.80;99.90;;;;;;6144758;23;20032;-89
2023/08/24 08:42:17;;;;;;;10.27;6.57;;;20.90;99.90;;;;;;6158391;23;20013;-88
2023/08/24 08:44:57;;;;;;;13.52;6.40;;;20.90;99.90;;;;;;6147206;23;20009;-89
2023/08/24 08:47:32;;;;;;;11.88;7.07;;;21.00;99.90;;;;;;6123407;23;20316;-88
2023/08/24 08:50:24;;;;;;;12.85;7.00;;;21.00;99.90;;;;;;6146149;23;20602;-88
2023/08/24 08:53:00;;;;;;;14.27;7.25;;;21.00;99.90;;;;;;6144876;23;20016;-89
2023/08/24 08:56:02;;;;;;;13.65;7.10;;;21.10;99.90;;;;;;6143084;23;20012;-89
2023/08/24 08:59:12;;;;;;;13.27;6.70;;;21.20;99.90;;;;;;6170566;23;20108;-90
2023/08/24 09:01:55;;;;;;;12.75;6.97;;;21.40;99.90;;;;;;6140072;23;20051;-89
2023/08/24 09:04:41;;;;;;;12.73;6.25;;;21.60;99.90;;;;;;6141556;23;20019;-89
2023/08/24 09:07:55;;;;;;;14.73;6.20;;;21.60;99.90;;;;;;6217193;23;20013;-89
2023/08/24 09:10:35;;;;;;;11.68;6.45;;;21.70;99.90;;;;;;6142249;23;20028;-89
2023/08/24 09:13:01;;;;;;;12.77;6.15;;;21.80;99.90;;;;;;6191063;23;20039;-88
2023/08/24 09:15:47;;;;;;;11.50;5.75;;;21.80;99.90;;;;;;6145155;23;20452;-89
2023/08/24 09:18:20;;;;;;;10.90;5.95;;;21.80;99.90;;;;;;6143135;23;20017;-89
2023/08/24 09:20:54;;;;;;;10.73;6.07;;;21.80;99.90;;;;;;6141967;23;20060;-89
2023/08/24 09:23:28;;;;;;;11.32;6.15;;;21.70;99.90;;;;;;6166728;23;20035;-89
2023/08/24 09:26:42;;;;;;;;;;;;;;;;;;;;;
2023/08/24 09:29:37;;;;;;;12.05;5.70;;;21.70;99.90;;;;;;6157476;23;20013;-90
2023/08/24 09:32:35;;;;;;;12.57;5.97;;;21.70;99.90;;;;;;6155352;23;20070;-89
2023/08/24 09:35:11;;;;;;;8.85;5.72;;;21.70;99.90;;;;;;6121059;23;20055;-89
2023/08/24 09:37:48;;;;;;;10.32;6.05;;;21.60;99.90;;;;;;6145243;23;20005;-89
2023/08/24 09:40:23;;;;;;;8.90;5.80;;;21.60;99.90;;;;;;6143511;23;20022;-89
2023/08/24 09:43:09;;;;;;;12.10;6.55;;;21.60;99.90;;;;;;6170271;23;20005;-89
2023/08/24 09:45:47;;;;;;;13.13;6.50;;;21.60;99.90;;;;;;6144749;23;20019;-89
2023/08/24 09:48:19;;;;;;;11.70;5.82;;;21.50;99.90;;;;;;6170232;23;20223;-89
2023/08/24 09:51:03;;;;;;;13.50;6.32;;;21.50;99.90;;;;;;6143728;23;20374;-89
2023/08/24 09:54:08;;;;;;;12.02;6.60;;;21.40;99.90;;;;;;6173637;23;20080;-90
2023/08/24 09:56:47;;;;;;;10.50;6.32;;;21.40;99.90;;;;;;6144472;23;20004;-89
2023/08/24 09:59:27;;;;;;;12.38;5.97;;;21.30;99.90;;;;;;6144112;23;20392;-90
2023/08/24 10:02:16;;;;;;;12.65;6.38;;;21.30;99.90;;;;;;6146685;23;20063;-91
2023/08/24 10:04:50;;;;;;;15.25;6.82;;;21.30;99.90;;;;;;6143956;23;20036;-90
2023/08/24 10:07:26;;;;;;;13.98;6.43;;;21.20;99.90;;;;;;6193198;23;20043;-89
2023/08/24 10:10:10;;;;;;;13.05;6.43;;;21.20;99.90;;;;;;6193474;23;20000;-90
2023/08/24 10:13:08;;;;;;;13.98;6.97;;;21.10;99.90;;;;;;6170813;23;20096;-89
2023/08/24 10:15:46;;;;;;;17.30;6.93;;;21.10;99.90;;;;;;6143954;23;20091;-89
2023/08/24 10:18:23;;;;;;;12.55;6.47;;;21.00;99.90;;;;;;6146207;23;20009;-90
2023/08/24 10:21:24;;;;;;;;;;;;;;;;;;;;;
2023/08/24 10:24:24;;;;;;;;;;;;;;;;;;;;;
2023/08/24 10:27:05;;;;;;;10.27;6.55;;;21.00;99.90;;;;;;6168777;23;20036;-90
2023/08/24 10:29:33;;;;;;;11.35;6.57;;;21.00;99.90;;;;;;6143957;23;20059;-90
2023/08/24 10:32:30;;;;;;;12.93;7.10;;;21.00;99.90;;;;;;6150219;23;20040;-90
2023/08/24 10:35:08;;;;;;;12.48;7.40;;;20.90;99.90;;;;;;6123675;23;20085;-90
2023/08/24 10:38:27;;;;;;;13.67;7.30;;;20.90;99.90;;;;;;6154984;23;20009;-89
2023/08/24 10:41:15;;;;;;;;;;;;;;;;;;;;;
2023/08/24 10:44:04;;;;;;;14.05;10.25;;;20.80;99.90;;;;;;6168510;23;20016;-89
2023/08/24 10:46:38;;;;;;;17.50;9.63;;;20.80;99.90;;;;;;6169069;23;20363;-89
2023/08/24 10:49:19;;;;;;;13.45;9.27;;;20.70;99.90;;;;;;6195438;23;20289;-89
2023/08/24 10:52:06;;;;;;;;;;;;;;;;;;;;;
2023/08/24 10:54:53;;;;;;;;;;;;;;;;;;;;;
2023/08/24 10:57:35;;;;;;;17.73;9.77;;;20.60;99.90;;;;;;6168825;23;20023;-90
2023/08/24 11:00:31;;;;;;;17.58;9.85;;;20.60;99.90;;;;;;6147146;23;20013;-89
2023/08/24 11:03:46;;;;;;;;;;;;;;;;;;;;;
2023/08/24 11:06:55;;;;;;;17.80;10.15;;;20.50;99.90;;;;;;6167258;23;20008;-92
2023/08/24 11:09:47;;;;;;;22.58;14.45;;;20.40;99.90;;;;;;6168547;23;20294;-91
2023/08/24 11:13:15;;;;;;;26.90;15.38;;;20.40;99.90;;;;;;6172058;23;20026;-91
2023/08/24 11:15:56;;;;;;;27.25;13.68;;;20.30;99.90;;;;;;6147330;23;20016;-91
2023/08/24 11:18:59;;;;;;;24.60;14.98;;;20.30;99.90;;;;;;6155798;23;20005;-92
2023/08/24 11:21:38;;;;;;;27.80;15.90;;;20.40;99.90;;;;;;6144548;23;20378;-91
2023/08/24 11:24:54;;;;;;;30.70;16.98;;;20.30;99.90;;;;;;6151623;23;20008;-93
2023/08/24 11:27:42;;;;;;;21.17;13.82;;;20.30;99.90;;;;;;6146750;23;20035;-90
2023/08/24 11:30:50;;;;;;;20.85;13.43;;;20.30;99.90;;;;;;6156401;23;20376;-90
2023/08/24 11:33:57;;;;;;;22.58;13.15;;;20.30;99.90;;;;;;6173099;23;20012;-89
2023/08/24 11:36:54;;;;;;;25.00;12.32;;;20.30;99.90;;;;;;6169826;23;20083;-90
2023/08/24 11:39:44;;;;;;;;;;;;;;;;;;;;;
2023/08/24 11:43:01;;;;;;;19.33;12.20;;;20.30;99.90;;;;;;6179011;23;20012;-90
2023/08/24 11:45:44;;;;;;;21.60;12.65;;;20.30;99.90;;;;;;6169680;23;20329;-90
2023/08/24 11:48:47;;;;;;;21.83;12.65;;;20.30;99.90;;;;;;6168939;23;20074;-90
2023/08/24 11:52:24;;;;;;;17.90;11.05;;;20.30;99.90;;;;;;6172358;23;20013;-89
2023/08/24 11:55:13;;;;;;;;;;;;;;;;;;;;;
2023/08/24 11:58:24;;;;;;;15.25;10.68;;;20.40;99.90;;;;;;6191717;23;20078;-90
2023/08/24 12:01:31;;;;;;;;;;;;;;;;;;;;;
2023/08/24 12:04:50;;;;;;;;;;;;;;;;;;;;;
2023/08/24 12:07:46;;;;;;;17.55;10.93;;;20.40;99.90;;;;;;6153897;23;20024;-91
2023/08/24 12:10:42;;;;;;;17.75;11.98;;;20.40;99.90;;;;;;6177094;23;20125;-90
2023/08/24 12:13:42;;;;;;;16.95;11.95;;;20.40;99.90;;;;;;6164846;23;20008;-93
2023/08/24 12:16:27;;;;;;;18.30;12.10;;;20.40;99.90;;;;;;6144346;23;20001;-90
2023/08/24 12:19:48;;;;;;;18.35;12.57;;;20.50;99.90;;;;;;6198558;23;20091;-92
2023/08/24 12:23:28;;;;;;;;;;;;;;;;;;;;;
2023/08/24 12:26:23;;;;;;;19.10;12.45;;;20.40;99.90;;;;;;6136232;23;20083;-90
2023/08/24 12:28:52;;;;;;;16.10;12.00;;;20.40;99.90;;;;;;6143632;23;20009;-88
2023/08/24 12:32:19;;;;;;;18.65;13.45;;;20.40;99.90;;;;;;6169679;23;20009;-91
2023/08/24 12:35:09;;;;;;;20.13;14.40;;;20.40;99.90;;;;;;6192535;23;20076;-91
2023/08/24 12:38:06;;;;;;;18.45;13.68;;;20.30;99.90;;;;;;6127548;23;20397;-92
2023/08/24 12:40:59;;;;;;;19.45;14.48;;;20.30;99.90;;;;;;6167821;23;20043;-92
2023/08/24 12:44:04;;;;;;;21.00;13.75;;;20.30;99.90;;;;;;6142407;23;20067;-92
2023/08/24 12:53:55;;;;;;;24.63;16.65;;;20.40;99.90;;;;;;6144889;23;20028;-92
2023/08/24 12:57:01;;;;;;;21.55;15.77;;;20.40;99.90;;;;;;6179677;23;20351;-91
2023/08/24 13:06:52;;;;;;;21.80;16.45;;;20.40;99.90;;;;;;6107258;23;20103;-91
2023/08/24 13:09:33;;;;;;;23.02;17.15;;;20.30;99.90;;;;;;6169417;23;20028;-90
2023/08/24 13:12:02;;;;;;;21.05;17.63;;;20.30;99.90;;;;;;6144005;23;20032;-90
2023/08/24 13:15:06;;;;;;;19.00;15.25;;;20.30;99.90;;;;;;6169390;23;20042;-90
2023/08/24 13:18:13;;;;;;;19.48;15.43;;;20.30;99.90;;;;;;6165015;23;20012;-91
2023/08/24 13:21:23;;;;;;;18.20;14.65;;;20.30;99.90;;;;;;6124317;23;20103;-92
2023/08/24 13:24:09;;;;;;;18.85;14.32;;;20.30;99.90;;;;;;6150766;23;20008;-90
2023/08/24 13:27:15;;;;;;;15.20;12.63;;;20.30;99.90;;;;;;6173643;23;20008;-91
2023/08/24 13:30:48;;;;;;;15.32;12.02;;;20.30;99.90;;;;;;6147696;23;20016;-91
2023/08/24 13:33:21;;;;;;;17.92;12.63;;;20.20;99.90;;;;;;6167114;23;20070;-92
2023/08/24 13:36:27;;;;;;;;;;;;;;;;;;;;;
2023/08/24 13:39:28;;;;;;;13.98;11.32;;;20.20;99.90;;;;;;6196161;23;20016;-90
2023/08/24 13:42:18;;;;;;;15.82;11.07;;;20.30;99.90;;;;;;6167672;23;20011;-91
2023/08/24 13:45:23;;;;;;;;;;;;;;;;;;;;;
2023/08/24 13:48:24;;;;;;;15.57;11.80;;;20.20;99.90;;;;;;6147194;23;20020;-90
2023/08/24 13:51:06;;;;;;;14.07;11.95;;;20.30;99.90;;;;;;6147256;23;20023;-90
2023/08/24 13:54:01;;;;;;;13.32;11.43;;;20.30;99.90;;;;;;6168420;23;20019;-92
2023/08/24 13:56:36;;;;;;;14.20;11.53;;;20.30;99.90;;;;;;6142432;23;20005;-91
2023/08/24 13:59:50;;;;;;;16.40;12.85;;;20.30;99.90;;;;;;6166403;23;20013;-92
2023/08/24 14:02:59;;;;;;;14.40;11.82;;;20.30;99.90;;;;;;6141368;23;20032;-90
2023/08/24 14:07:21;;;;;;;17.85;12.93;;;20.30;99.90;;;;;;6166195;23;20005;-92
2023/08/24 14:10:55;;;;;;;;;;;;;;;;;;;;;
2023/08/24 14:23:03;;;;;;;15.27;12.23;;;20.30;99.90;;;;;;6095866;23;20013;-89
2023/08/24 14:25:57;;;;;;;17.80;13.88;;;20.40;99.90;;;;;;6103295;23;20008;-90
2023/08/24 14:29:02;;;;;;;15.15;13.57;;;20.40;99.90;;;;;;6146575;23;20075;-90
2023/08/24 14:31:55;;;;;;;16.67;13.18;;;20.40;99.90;;;;;;6152074;23;20005;-92
2023/08/24 14:34:52;;;;;;;17.23;14.10;;;20.50;99.90;;;;;;6149071;23;20226;-91
2023/08/24 14:37:34;;;;;;;16.15;14.45;;;20.50;99.90;;;;;;6168766;23;20088;-90
2023/08/24 14:40:15;;;;;;;14.73;12.68;;;20.50;99.90;;;;;;6169157;23;20068;-90
2023/08/24 14:42:42;;;;;;;17.60;15.07;;;20.50;99.90;;;;;;6168318;23;20016;-90
2023/08/24 14:45:17;;;;;;;15.93;14.23;;;20.50;99.90;;;;;;6169810;23;20004;-91
2023/08/24 14:48:06;;;;;;;17.88;14.98;;;20.50;99.90;;;;;;6134327;23;20013;-90
2023/08/24 14:50:43;;;;;;;25.20;16.58;;;20.50;99.90;;;;;;6144477;23;20374;-91
2023/08/24 14:53:40;;;;;;;17.77;15.27;;;20.50;99.90;;;;;;6156353;23;20015;-90
2023/08/24 15:01:46;;;;;;;18.25;15.63;;;20.50;99.90;;;;;;6127945;23;20025;-91
2023/08/24 15:05:16;;;;;;;18.70;16.52;;;20.50;99.90;;;;;;6043935;23;20022;-92
2023/08/24 15:08:45;;;;;;;;;;;;;;;;;;;;;
2023/08/24 15:12:05;;;;;;;23.45;18.00;;;20.50;99.90;;;;;;6217845;23;20095;-90
2023/08/24 15:15:07;;;;;;;23.63;18.25;;;20.50;99.90;;;;;;6128043;23;20016;-91
2023/08/24 15:18:09;;;;;;;;;;;;;;;;;;;;;
2023/08/24 15:21:27;;;;;;;23.33;18.05;;;20.50;99.90;;;;;;6171248;23;20017;-91
2023/08/24 15:25:02;;;;;;;;;;;;;;;;;;;;;
2023/08/24 15:28:25;;;;;;;25.50;20.30;;;20.60;99.90;;;;;;6192055;23;20067;-92
2023/08/24 15:31:44;;;;;;;;;;;;;;;;;;;;;
2023/08/24 15:35:36;;;;;;;20.92;18.73;;;20.60;99.90;;;;;;6168607;23;20378;-92
2023/08/24 15:38:30;;;;;;;;;;;;;;;;;;;;;
2023/08/24 15:41:29;;;;;;;31.23;24.33;;;20.60;99.90;;;;;;6125127;23;20098;-92
2023/08/24 16:01:34;;;;;;;25.02;20.67;;;20.70;99.90;;;;;;6077820;23;20013;-91
2023/08/24 16:04:41;;;;;;;;;;;20.80;99.90;;;;;;6109309;23;20012;-93
2023/08/24 16:07:18;;;;;;;22.55;19.52;;;20.70;99.90;;;;;;6112751;23;20128;-90
2023/08/24 16:10:07;;;;;;;25.10;21.42;;;20.80;99.90;;;;;;6119993;23;20374;-92
2023/08/24 16:16:38;;;;;;;28.30;21.40;;;20.80;99.90;;;;;;6157850;23;20009;-94
2023/08/24 16:32:52;;;;;;;24.60;21.30;;;20.80;99.90;;;;;;6013639;23;20030;-92
2023/08/24 16:35:57;;;;;;;24.35;21.25;;;20.80;99.90;;;;;;6046079;23;20104;-92
2023/08/24 16:39:29;;;;;;;;;;;;;;;;;;;;;
2023/08/24 16:47:19;;;;;;;26.17;21.60;;;20.80;99.90;;;;;;6043935;23;20025;-94
2023/08/24 17:00:41;;;;;;;26.70;22.25;;;20.80;99.90;;;;;;6188713;23;20078;-93
2023/08/24 17:03:50;;;;;;;25.60;22.85;;;20.70;99.90;;;;;;6127318;23;20009;-92
2023/08/24 17:15:43;;;;;;;26.00;23.17;;;20.70;99.90;;;;;;6069210;23;20011;-91